TimeCDT,TemperatureF,Dew PointF,Humidity,Sea Level PressureIn,VisibilityMPH,Wind Direction,Wind SpeedMPH,Gust SpeedMPH,PrecipitationIn,Events,Conditions,WindDirDegrees,DateUTC
12:15 AM,61.7,54.3,77,29.99,10.0,NE,4.6,-,N/A,,Clear,40,2013-07-24 05:15:00
12:35 AM,61.2,54.3,78,29.99,10.0,NNE,4.6,-,N/A,,Clear,30,2013-07-24 05:35:00
12:55 AM,61.2,54.5,79,29.99,10.0,NNE,5.8,-,N/A,,Clear,20,2013-07-24 05:55:00
1:15 AM,61.3,54.1,77,29.99,10.0,North,5.8,-,N/A,,Clear,10,2013-07-24 06:15:00
1:35 AM,61.3,54.1,77,29.98,10.0,NNE,8.1,-,N/A,,Clear,20,2013-07-24 06:35:00
1:55 AM,60.8,54.1,79,29.98,10.0,NNE,6.9,-,N/A,,Clear,20,2013-07-24 06:55:00
2:15 AM,60.8,54.0,78,29.98,10.0,North,4.6,-,N/A,,Clear,10,2013-07-24 07:15:00
2:35 AM,60.1,53.4,79,29.99,10.0,NNE,3.5,-,N/A,,Clear,30,2013-07-24 07:35:00
2:55 AM,59.2,53.1,80,30.00,10.0,Calm,Calm,-,N/A,,Clear,0,2013-07-24 07:55:00
3:15 AM,58.8,52.7,80,30.00,10.0,Calm,Calm,-,N/A,,Clear,0,2013-07-24 08:15:00
3:35 AM,58.5,52.3,80,29.99,10.0,North,3.5,-,N/A,,Clear,10,2013-07-24 08:35:00
3:55 AM,58.5,51.8,79,29.99,10.0,Calm,Calm,-,N/A,,Clear,0,2013-07-24 08:55:00
4:15 AM,58.1,52.0,80,30.00,10.0,Calm,Calm,-,N/A,,Clear,0,2013-07-24 09:15:00
4:35 AM,54.9,50.0,84,30.01,10.0,Calm,Calm,-,N/A,,Clear,0,2013-07-24 09:35:00
4:55 AM,54.5,50.7,87,30.02,10.0,Calm,Calm,-,N/A,,Clear,0,2013-07-24 09:55:00
5:15 AM,52.7,50.2,91,30.02,10.0,Calm,Calm,-,N/A,,Clear,0,2013-07-24 10:15:00
5:35 AM,52.5,50.7,94,30.02,10.0,Calm,Calm,-,N/A,,Clear,0,2013-07-24 10:35:00
5:55 AM,51.6,50.2,95,30.03,10.0,Calm,Calm,-,N/A,,Clear,0,2013-07-24 10:55:00
6:15 AM,54.3,50.9,88,30.04,10.0,Calm,Calm,-,N/A,,Clear,0,2013-07-24 11:15:00
6:35 AM,57.4,52.3,83,30.04,10.0,Calm,Calm,-,N/A,,Clear,0,2013-07-24 11:35:00
6:55 AM,59.9,52.5,77,30.04,10.0,Calm,Calm,-,N/A,,Clear,0,2013-07-24 11:55:00
7:15 AM,61.0,52.0,72,30.04,10.0,Calm,Calm,-,N/A,,Clear,0,2013-07-24 12:15:00
7:35 AM,62.2,51.1,67,30.05,10.0,ENE,4.6,-,N/A,,Clear,60,2013-07-24 12:35:00
7:55 AM,63.5,50.5,63,30.05,10.0,NE,5.8,-,N/A,,Clear,50,2013-07-24 12:55:00
8:15 AM,64.6,50.5,60,30.06,10.0,ENE,9.2,-,N/A,,Clear,60,2013-07-24 13:15:00
8:35 AM,65.1,50.4,59,30.06,10.0,ENE,9.2,-,N/A,,Clear,60,2013-07-24 13:35:00
8:55 AM,65.7,50.0,57,30.05,10.0,NNE,9.2,-,N/A,,Scattered Clouds,30,2013-07-24 13:55:00
9:15 AM,66.7,49.5,54,30.06,10.0,NE,10.4,-,N/A,,Clear,40,2013-07-24 14:15:00
9:35 AM,67.1,48.7,52,30.06,10.0,East,10.4,-,N/A,,Clear,80,2013-07-24 14:35:00
9:55 AM,68.5,48.9,49,30.06,10.0,ENE,8.1,17.3,N/A,,Clear,70,2013-07-24 14:55:00
10:15 AM,68.5,48.7,49,30.06,10.0,ENE,5.8,-,N/A,,Clear,70,2013-07-24 15:15:00
10:35 AM,69.8,48.9,47,30.05,10.0,NE,9.2,-,N/A,,Clear,40,2013-07-24 15:35:00
10:55 AM,70.5,48.9,46,30.06,10.0,ENE,6.9,-,N/A,,Clear,60,2013-07-24 15:55:00
11:15 AM,70.5,48.7,46,30.06,10.0,East,10.4,-,N/A,,Clear,80,2013-07-24 16:15:00
11:35 AM,71.1,47.8,44,30.06,10.0,NNE,8.1,-,N/A,,Clear,20,2013-07-24 16:35:00
11:55 AM,71.8,48.2,43,30.07,10.0,NE,11.5,17.3,N/A,,Clear,40,2013-07-24 16:55:00
12:15 PM,72.9,49.1,43,30.06,10.0,ENE,9.2,-,N/A,,Scattered Clouds,60,2013-07-24 17:15:00
12:35 PM,71.8,47.3,42,30.06,10.0,NE,8.1,17.3,N/A,,Scattered Clouds,50,2013-07-24 17:35:00
12:55 PM,72.9,48.0,41,30.06,10.0,NE,11.5,17.3,N/A,,Scattered Clouds,50,2013-07-24 17:55:00
1:15 PM,73.8,47.3,39,30.06,10.0,ENE,9.2,-,N/A,,Clear,70,2013-07-24 18:15:00
1:35 PM,73.6,47.3,39,30.06,10.0,ENE,8.1,16.1,N/A,,Clear,70,2013-07-24 18:35:00
1:55 PM,73.0,47.5,40,30.05,10.0,NE,9.2,-,N/A,,Clear,50,2013-07-24 18:55:00
2:15 PM,73.6,46.4,38,30.05,10.0,ENE,10.4,20.7,N/A,,Clear,70,2013-07-24 19:15:00
2:35 PM,73.9,47.3,39,30.05,10.0,NE,11.5,-,N/A,,Clear,40,2013-07-24 19:35:00
2:55 PM,74.3,46.9,38,30.04,10.0,East,10.4,-,N/A,,Clear,80,2013-07-24 19:55:00
3:15 PM,73.0,47.5,40,30.04,10.0,East,6.9,-,N/A,,Clear,100,2013-07-24 20:15:00
3:35 PM,73.6,47.1,39,30.04,10.0,NE,8.1,-,N/A,,Clear,40,2013-07-24 20:35:00
3:55 PM,73.4,47.3,39,30.04,10.0,ENE,8.1,-,N/A,,Clear,70,2013-07-24 20:55:00
4:15 PM,73.6,46.4,38,30.03,10.0,ENE,5.8,-,N/A,,Clear,70,2013-07-24 21:15:00
4:35 PM,74.1,46.2,37,30.03,10.0,ENE,5.8,-,N/A,,Clear,60,2013-07-24 21:35:00
4:55 PM,73.0,46.0,38,30.03,10.0,ENE,8.1,-,N/A,,Clear,70,2013-07-24 21:55:00
5:15 PM,72.5,46.2,39,30.04,10.0,ENE,9.2,-,N/A,,Clear,70,2013-07-24 22:15:00
5:35 PM,72.1,45.9,39,30.04,10.0,ENE,6.9,-,N/A,,Clear,60,2013-07-24 22:35:00
5:55 PM,72.3,45.3,38,30.04,10.0,East,4.6,-,N/A,,Clear,80,2013-07-24 22:55:00
6:15 PM,72.0,45.7,39,30.04,10.0,NE,8.1,-,N/A,,Clear,50,2013-07-24 23:15:00
6:35 PM,71.4,46.6,41,30.04,10.0,NE,10.4,-,N/A,,Clear,40,2013-07-24 23:35:00
6:55 PM,70.7,46.6,42,30.05,10.0,ENE,4.6,-,N/A,,Clear,60,2013-07-24 23:55:00
7:15 PM,69.8,47.7,45,30.06,10.0,NE,4.6,-,N/A,,Clear,50,2013-07-25 00:15:00
7:35 PM,68.4,48.2,48,30.06,10.0,ENE,5.8,-,N/A,,Clear,60,2013-07-25 00:35:00
7:55 PM,66.7,49.1,53,30.06,10.0,East,8.1,-,N/A,,Clear,90,2013-07-25 00:55:00
8:15 PM,66.0,50.0,56,30.06,10.0,ENE,10.4,-,N/A,,Clear,70,2013-07-25 01:15:00
8:35 PM,64.9,50.4,59,30.06,10.0,ENE,5.8,-,N/A,,Clear,70,2013-07-25 01:35:00
8:55 PM,64.6,50.2,60,30.06,10.0,ENE,5.8,-,N/A,,Clear,60,2013-07-25 01:55:00
9:15 PM,63.3,50.2,62,30.06,10.0,ENE,5.8,-,N/A,,Clear,70,2013-07-25 02:15:00
9:35 PM,62.6,50.2,64,30.06,10.0,ENE,4.6,-,N/A,,Clear,70,2013-07-25 02:35:00
9:55 PM,62.2,50.2,65,30.06,10.0,ENE,4.6,-,N/A,,Clear,60,2013-07-25 02:55:00
10:15 PM,61.0,50.2,68,30.06,10.0,ENE,4.6,-,N/A,,Clear,60,2013-07-25 03:15:00
10:35 PM,62.1,50.2,65,30.07,10.0,Calm,Calm,-,N/A,,Clear,0,2013-07-25 03:35:00
10:55 PM,59.2,50.4,73,30.08,10.0,Calm,Calm,-,N/A,,Clear,0,2013-07-25 03:55:00
11:15 PM,58.1,50.9,77,30.07,10.0,Calm,Calm,-,N/A,,Clear,0,2013-07-25 04:15:00
11:35 PM,57.6,51.4,80,30.07,10.0,Calm,Calm,-,N/A,,Clear,0,2013-07-25 04:35:00
11:55 PM,56.3,51.1,83,30.07,10.0,Calm,Calm,-,N/A,,Clear,0,2013-07-25 04:55:00